Time;durP1;ratioP1;P1;durP2;ratioP2;P2;SDS_P1;SDS_P2;PMS_P1;PMS_P2;Temp;Humidity;BMP_temperature;BMP_pressure;BME280_temperature;BME280_humidity;BME280_pressure;Samples;Min_cycle;Max_cycle;Signal;HPM_P1;HPM_P2
2022/09/27 00:00:23;;;;;;;5.82;2.38;;;10.80;99.90;;;;;;5135839;27;20587;-53
2022/09/27 00:02:48;;;;;;;3.05;2.17;;;10.80;99.90;;;;;;5135762;27;20164;-54
2022/09/27 00:05:15;;;;;;;3.67;2.42;;;10.80;99.90;;;;;;5135723;27;20670;-54
2022/09/27 00:07:40;;;;;;;5.25;2.35;;;10.80;99.90;;;;;;5135917;27;20179;-54
2022/09/27 00:10:07;;;;;;;6.05;2.22;;;10.90;99.90;;;;;;5135877;27;20180;-53
2022/09/27 00:12:33;;;;;;;3.50;2.10;;;10.80;99.90;;;;;;5135599;27;20174;-53
2022/09/27 00:14:59;;;;;;;4.57;2.47;;;10.80;99.90;;;;;;5135520;27;20200;-54
2022/09/27 00:17:26;;;;;;;5.60;2.72;;;10.80;99.90;;;;;;5135512;27;20160;-53
2022/09/27 00:19:51;;;;;;;6.20;3.00;;;10.80;99.90;;;;;;5135494;27;20187;-53
2022/09/27 00:22:17;;;;;;;4.85;3.13;;;10.80;99.90;;;;;;5135439;27;20617;-53
2022/09/27 00:24:43;;;;;;;4.60;3.30;;;10.80;99.90;;;;;;5135672;27;20171;-53
2022/09/27 00:27:08;;;;;;;4.43;3.30;;;10.80;99.90;;;;;;5135641;27;20174;-53
2022/09/27 00:29:34;;;;;;;7.45;3.22;;;10.80;99.90;;;;;;5135329;27;20183;-54
2022/09/27 00:31:59;;;;;;;6.15;3.58;;;10.80;99.90;;;;;;5135164;27;20251;-53
2022/09/27 00:34:25;;;;;;;4.88;3.05;;;10.80;99.90;;;;;;5135192;27;20168;-53
2022/09/27 00:36:52;;;;;;;3.30;2.45;;;10.80;99.90;;;;;;5135262;27;20164;-53
2022/09/27 00:39:18;;;;;;;5.10;2.72;;;10.80;99.90;;;;;;5135027;27;20687;-53
2022/09/27 00:41:44;;;;;;;6.15;2.30;;;10.80;99.90;;;;;;5135037;27;20240;-54
2022/09/27 00:44:27;;;;;;;4.60;1.80;;;10.80;99.90;;;;;;5135301;27;20628;-53
2022/09/27 00:47:22;;;;;;;7.53;2.55;;;10.80;99.90;;;;;;5135010;27;20178;-53
2022/09/27 00:49:54;;;;;;;1.40;1.30;;;10.70;99.90;;;;;;5135170;27;20251;-53
2022/09/27 00:52:33;;;;;;;6.28;1.60;;;10.70;99.90;;;;;;5134938;27;20159;-54
2022/09/27 00:55:07;;;;;;;2.22;1.60;;;10.70;99.90;;;;;;5134633;27;20234;-54
2022/09/27 00:57:33;;;;;;;2.90;1.13;;;10.70;99.90;;;;;;5134174;27;20172;-54
2022/09/27 01:00:05;;;;;;;3.60;1.40;;;10.70;99.90;;;;;;5134904;27;20212;-53
2022/09/27 01:02:32;;;;;;;5.28;1.77;;;10.70;99.90;;;;;;5134679;27;20205;-54
2022/09/27 01:04:57;;;;;;;2.50;2.25;;;10.70;99.90;;;;;;5134411;27;20247;-54
2022/09/27 01:07:23;;;;;;;4.95;1.95;;;10.70;99.90;;;;;;5134641;27;20247;-53
2022/09/27 01:09:49;;;;;;;4.30;1.70;;;10.60;99.90;;;;;;5134800;27;20164;-53
2022/09/27 01:12:45;;;;;;;2.38;1.90;;;10.60;99.90;;;;;;5134225;27;20617;-53
2022/09/27 01:15:38;;;;;;;4.45;1.73;;;10.60;99.90;;;;;;5134910;27;20208;-53
2022/09/27 01:18:16;;;;;;;3.25;1.77;;;10.70;99.90;;;;;;5134381;27;20520;-53
2022/09/27 01:21:19;;;;;;;3.50;1.90;;;10.70;99.90;;;;;;5134629;27;20191;-53
2022/09/27 01:23:45;;;;;;;2.63;2.42;;;10.60;99.90;;;;;;5134350;27;20172;-53
2022/09/27 01:26:30;;;;;;;5.38;2.42;;;10.60;99.90;;;;;;5134699;27;20168;-53
2022/09/27 01:29:08;;;;;;;8.02;3.35;;;10.60;99.90;;;;;;5134201;27;20164;-53
2022/09/27 01:32:07;;;;;;;7.00;2.92;;;10.70;99.90;;;;;;5134060;27;20182;-54
2022/09/27 01:34:52;;;;;;;4.28;2.30;;;10.60;99.90;;;;;;5133836;27;20523;-53
2022/09/27 01:37:50;;;;;;;3.67;2.38;;;10.60;99.90;;;;;;5133968;27;20237;-53
2022/09/27 01:40:27;;;;;;;6.57;3.30;;;10.60;99.90;;;;;;5133944;27;20188;-53
2022/09/27 01:43:19;;;;;;;5.00;2.50;;;10.60;99.90;;;;;;5133909;27;20224;-53
2022/09/27 01:45:50;;;;;;;6.50;2.63;;;10.60;99.90;;;;;;5114800;27;20224;-53
2022/09/27 01:48:21;;;;;;;6.55;2.40;;;10.60;99.90;;;;;;5133824;27;20565;-53
2022/09/27 01:51:07;;;;;;;4.07;2.25;;;10.60;99.90;;;;;;5133704;27;20156;-53
2022/09/27 01:53:39;;;;;;;2.92;2.25;;;10.60;99.90;;;;;;5133825;27;20535;-53
2022/09/27 01:56:10;;;;;;;3.10;2.60;;;10.60;99.90;;;;;;5133336;27;20222;-53
2022/09/27 01:58:50;;;;;;;7.28;2.95;;;10.60;99.90;;;;;;5133409;27;20668;-53
2022/09/27 02:01:19;;;;;;;6.32;2.55;;;10.60;99.90;;;;;;5133454;27;20174;-53
2022/09/27 02:03:50;;;;;;;3.88;2.53;;;10.60;99.90;;;;;;5133559;27;20656;-53
2022/09/27 02:06:23;;;;;;;5.85;2.42;;;10.60;99.90;;;;;;5133349;27;20248;-53
2022/09/27 02:09:21;;;;;;;3.80;2.30;;;10.50;99.90;;;;;;5132740;27;20179;-53
2022/09/27 02:11:54;;;;;;;6.47;2.45;;;10.50;99.90;;;;;;5133010;27;20538;-53
2022/09/27 02:14:44;;;;;;;6.03;2.92;;;10.50;99.90;;;;;;5133052;27;20172;-54
2022/09/27 02:17:41;;;;;;;3.55;1.88;;;10.50;99.90;;;;;;5133772;27;20176;-53
2022/09/27 02:20:24;;;;;;;5.60;2.38;;;10.50;99.90;;;;;;5133131;27;20156;-53
2022/09/27 02:22:56;;;;;;;4.70;2.22;;;10.50;99.90;;;;;;5133144;27;20696;-53
2022/09/27 02:25:32;;;;;;;5.38;2.35;;;10.50;99.90;;;;;;5133059;27;20160;-53
2022/09/27 02:28:26;;;;;;;4.78;2.22;;;10.50;99.90;;;;;;5133042;27;20164;-53
2022/09/27 02:30:52;;;;;;;2.17;1.98;;;10.50;99.90;;;;;;5130707;27;20176;-53
2022/09/27 02:33:21;;;;;;;3.55;2.00;;;10.40;99.90;;;;;;5132932;27;20160;-53
2022/09/27 02:35:47;;;;;;;4.97;2.00;;;10.50;99.90;;;;;;5132776;27;20204;-53
2022/09/27 02:38:13;;;;;;;3.83;1.88;;;10.50;99.90;;;;;;5133058;27;20160;-53
2022/09/27 02:40:44;;;;;;;4.75;2.90;;;10.40;99.90;;;;;;5133113;27;20175;-53
2022/09/27 02:43:13;;;;;;;4.47;1.90;;;10.40;99.90;;;;;;5133111;27;20172;-53
2022/09/27 02:46:10;;;;;;;3.67;1.90;;;10.40;99.90;;;;;;5133389;27;20229;-53
2022/09/27 02:48:55;;;;;;;1.80;1.70;;;10.40;99.90;;;;;;5132809;27;20656;-53
2022/09/27 02:51:29;;;;;;;1.83;1.50;;;10.40;99.90;;;;;;5132705;27;20618;-53
2022/09/27 02:54:20;;;;;;;3.05;1.73;;;10.40;99.90;;;;;;5132554;27;20164;-53
2022/09/27 02:57:10;;;;;;;3.00;1.75;;;10.40;99.90;;;;;;5132447;27;20210;-53
2022/09/27 03:00:04;;;;;;;1.98;1.48;;;10.40;99.90;;;;;;5131254;27;20174;-53
2022/09/27 03:02:56;;;;;;;6.22;1.88;;;10.30;99.90;;;;;;5132610;27;20199;-53
2022/09/27 03:05:45;;;;;;;1.40;1.05;;;10.20;99.90;;;;;;5132622;27;20167;-53
2022/09/27 03:08:12;;;;;;;3.88;1.38;;;10.20;99.90;;;;;;5132857;27;20160;-53
2022/09/27 03:10:38;;;;;;;2.90;1.63;;;10.20;99.90;;;;;;5132605;27;20511;-53
2022/09/27 03:13:04;;;;;;;2.33;1.13;;;10.20;99.90;;;;;;5132228;27;20179;-53
2022/09/27 03:15:30;;;;;;;1.83;1.15;;;10.20;99.90;;;;;;5132401;27;20200;-53
2022/09/27 03:17:56;;;;;;;1.73;1.08;;;10.20;99.90;;;;;;5132611;27;20188;-53
2022/09/27 03:20:22;;;;;;;4.35;1.55;;;10.10;99.90;;;;;;5134292;27;20238;-53
2022/09/27 03:22:47;;;;;;;4.07;1.60;;;10.20;99.90;;;;;;5136906;27;20171;-53
2022/09/27 03:25:13;;;;;;;2.78;1.48;;;10.10;99.90;;;;;;5136652;27;20164;-53
2022/09/27 03:27:38;;;;;;;3.45;1.35;;;10.10;99.90;;;;;;5136934;27;20164;-54
2022/09/27 03:30:05;;;;;;;1.98;1.25;;;10.10;99.90;;;;;;5135209;27;20160;-53
2022/09/27 03:32:31;;;;;;;1.40;1.20;;;10.00;99.90;;;;;;5136604;27;20175;-53
2022/09/27 03:34:56;;;;;;;2.75;1.45;;;10.00;99.90;;;;;;5134997;27;20187;-53
2022/09/27 03:37:22;;;;;;;2.97;1.75;;;10.20;99.90;;;;;;5136492;27;20176;-53
2022/09/27 03:39:48;;;;;;;4.55;1.63;;;9.40;99.90;;;;;;5136164;27;20171;-53
2022/09/27 03:42:13;;;;;;;3.42;1.65;;;10.10;99.90;;;;;;5136321;27;20163;-53
2022/09/27 03:44:39;;;;;;;3.42;1.63;;;10.10;99.90;;;;;;5136469;27;20213;-54
2022/09/27 03:47:05;;;;;;;1.73;1.50;;;9.90;99.90;;;;;;5136316;27;20172;-53
2022/09/27 03:49:31;;;;;;;4.70;1.65;;;9.90;99.90;;;;;;5136048;27;20167;-53
2022/09/27 03:51:57;;;;;;;2.28;1.48;;;9.90;99.90;;;;;;5136343;27;20179;-54
2022/09/27 03:54:23;;;;;;;3.40;1.50;;;7.60;99.90;;;;;;5134555;27;20314;-53
2022/09/27 03:56:50;;;;;;;2.55;1.65;;;9.90;99.90;;;;;;5136115;27;20233;-53
2022/09/27 03:59:16;;;;;;;3.10;1.88;;;9.80;99.90;;;;;;5135922;27;20187;-53
2022/09/27 04:01:43;;;;;;;2.72;1.52;;;9.90;99.90;;;;;;5136085;27;20384;-53
2022/09/27 04:04:09;;;;;;;2.85;1.80;;;9.80;99.90;;;;;;5136114;27;20152;-53
2022/09/27 04:06:35;;;;;;;1.98;1.50;;;9.70;99.90;;;;;;5135843;27;20168;-53
2022/09/27 04:09:01;;;;;;;5.00;1.80;;;9.70;99.90;;;;;;5135603;27;20172;-53
2022/09/27 04:11:27;;;;;;;3.03;1.55;;;9.70;99.90;;;;;;5135681;27;20167;-54
2022/09/27 04:13:52;;;;;;;2.85;1.55;;;9.70;99.90;;;;;;5135746;27;20215;-53
2022/09/27 04:16:18;;;;;;;5.45;1.50;;;9.70;99.90;;;;;;5135631;27;20203;-53
2022/09/27 04:18:45;;;;;;;4.65;1.85;;;9.70;99.90;;;;;;5135379;27;20168;-53
2022/09/27 04:21:11;;;;;;;2.72;1.55;;;9.70;99.90;;;;;;5135823;27;20160;-53
2022/09/27 04:23:37;;;;;;;2.85;1.70;;;9.60;99.90;;;;;;5135803;27;20164;-53
2022/09/27 04:26:03;;;;;;;3.05;1.58;;;9.60;99.90;;;;;;5135625;27;20530;-53
2022/09/27 04:28:29;;;;;;;2.08;1.50;;;9.60;99.90;;;;;;5135089;27;20255;-53
2022/09/27 04:30:55;;;;;;;1.77;1.20;;;9.50;99.90;;;;;;5135232;27;20167;-53
2022/09/27 04:33:20;;;;;;;5.20;1.58;;;9.60;99.90;;;;;;5134400;27;20167;-53
2022/09/27 04:38:31;;;;;;;1.20;1.10;;;9.60;99.90;;;;;;5135405;27;20259;-53
2022/09/27 04:40:56;;;;;;;1.73;1.48;;;9.60;99.90;;;;;;5135107;27;20644;-53
2022/09/27 04:43:22;;;;;;;3.90;1.70;;;9.60;99.90;;;;;;5135068;27;20160;-53
2022/09/27 04:45:48;;;;;;;1.50;1.40;;;9.60;99.90;;;;;;5133737;27;20164;-53
2022/09/27 04:48:13;;;;;;;1.40;1.30;;;9.50;99.90;;;;;;5135000;27;20254;-53
2022/09/27 04:50:40;;;;;;;3.90;1.67;;;9.60;99.90;;;;;;5134118;27;20185;-53
2022/09/27 04:53:06;;;;;;;1.85;1.50;;;9.50;99.90;;;;;;5134818;27;20229;-53
2022/09/27 04:55:31;;;;;;;3.60;1.65;;;9.50;99.90;;;;;;5134588;27;20688;-53
2022/09/27 04:57:57;;;;;;;3.88;1.73;;;9.50;99.90;;;;;;5134661;27;20525;-53
2022/09/27 05:00:23;;;;;;;2.38;1.23;;;9.50;99.90;;;;;;5134492;27;20176;-53
2022/09/27 05:02:48;;;;;;;3.75;1.88;;;9.40;99.90;;;;;;5134869;27;20180;-53
2022/09/27 05:05:14;;;;;;;2.38;1.33;;;9.40;99.90;;;;;;5134402;27;20180;-54
2022/09/27 05:07:40;;;;;;;3.47;1.50;;;9.40;99.90;;;;;;5134852;27;20203;-53
2022/09/27 05:10:07;;;;;;;3.05;1.50;;;9.40;99.90;;;;;;5134640;27;20183;-53
2022/09/27 05:12:32;;;;;;;5.18;1.42;;;9.40;99.90;;;;;;5134266;27;20164;-53
2022/09/27 05:14:58;;;;;;;2.08;1.40;;;9.40;99.90;;;;;;5134192;27;20252;-53
2022/09/27 05:17:24;;;;;;;3.08;1.65;;;9.30;99.90;;;;;;5132996;27;20224;-53
2022/09/27 05:19:49;;;;;;;3.25;1.38;;;9.30;99.90;;;;;;5134638;27;20163;-53
2022/09/27 05:22:15;;;;;;;2.50;1.10;;;9.30;99.90;;;;;;5134219;27;20268;-53
2022/09/27 05:24:41;;;;;;;2.38;1.40;;;9.30;99.90;;;;;;5134637;27;20160;-53
2022/09/27 05:27:11;;;;;;;3.17;1.67;;;9.20;99.90;;;;;;5134389;27;20517;-53
2022/09/27 05:29:37;;;;;;;1.90;1.35;;;9.20;99.90;;;;;;5134486;27;20179;-53
2022/09/27 05:32:03;;;;;;;4.35;1.25;;;9.20;99.90;;;;;;5134263;27;20484;-53
2022/09/27 05:34:31;;;;;;;6.32;1.50;;;9.30;99.90;;;;;;5134096;27;20731;-53
2022/09/27 05:36:57;;;;;;;3.45;2.25;;;9.30;99.90;;;;;;5133884;27;20200;-53
2022/09/27 05:39:22;;;;;;;2.33;1.50;;;9.30;99.90;;;;;;5133735;27;20216;-53
2022/09/27 05:41:49;;;;;;;2.33;1.27;;;9.30;99.90;;;;;;5133808;27;20207;-53
2022/09/27 05:44:15;;;;;;;2.70;1.60;;;9.30;99.90;;;;;;5134019;27;20172;-53
2022/09/27 05:46:41;;;;;;;1.80;1.67;;;9.40;99.90;;;;;;5133992;27;20172;-53
2022/09/27 05:49:07;;;;;;;5.28;2.28;;;12.10;99.90;;;;;;5134057;27;20170;-53
2022/09/27 05:51:33;;;;;;;6.32;1.90;;;9.40;99.90;;;;;;5133893;27;20246;-53
2022/09/27 05:53:58;;;;;;;3.63;2.10;;;9.50;99.90;;;;;;5133503;27;20171;-53
2022/09/27 05:56:24;;;;;;;2.58;1.60;;;9.50;99.90;;;;;;5133705;27;20207;-53
2022/09/27 05:58:50;;;;;;;3.63;1.70;;;9.50;99.90;;;;;;5133530;27;20750;-53
2022/09/27 06:01:17;;;;;;;3.83;2.20;;;9.50;99.90;;;;;;5132364;27;20175;-53
2022/09/27 06:03:42;;;;;;;5.20;2.17;;;9.50;99.90;;;;;;5133564;27;20195;-53
2022/09/27 06:06:09;;;;;;;2.97;2.35;;;9.50;99.90;;;;;;5133929;27;20201;-53
2022/09/27 06:08:37;;;;;;;4.20;2.30;;;9.60;99.90;;;;;;5133189;27;20224;-53
2022/09/27 06:11:12;;;;;;;4.25;1.65;;;9.60;99.90;;;;;;5133659;27;20179;-53
2022/09/27 06:13:38;;;;;;;3.75;1.90;;;9.60;99.90;;;;;;5133490;27;20571;-53
2022/09/27 06:16:05;;;;;;;4.85;1.70;;;9.60;99.90;;;;;;5131803;27;20210;-51
2022/09/27 06:18:31;;;;;;;5.20;1.98;;;9.70;99.90;;;;;;5131961;27;20168;-54
2022/09/27 06:21:00;;;;;;;2.95;1.80;;;9.60;99.90;;;;;;5131805;27;20182;-56
2022/09/27 06:23:26;;;;;;;1.98;1.35;;;9.60;99.90;;;;;;5131834;27;20159;-56
2022/09/27 06:25:53;;;;;;;2.97;1.50;;;9.70;99.90;;;;;;5131992;27;20685;-54
2022/09/27 06:28:20;;;;;;;1.88;1.35;;;9.70;99.90;;;;;;5131782;27;20167;-54
2022/09/27 06:30:48;;;;;;;3.80;1.73;;;9.70;99.90;;;;;;5132016;27;20164;-54
2022/09/27 06:33:18;;;;;;;3.17;1.40;;;9.80;99.90;;;;;;5132253;27;20175;-54
2022/09/27 06:35:45;;;;;;;1.88;1.25;;;9.80;99.90;;;;;;5131638;27;20216;-53
2022/09/27 06:38:16;;;;;;;2.45;1.50;;;9.80;99.90;;;;;;5132001;27;20171;-54
2022/09/27 06:40:45;;;;;;;1.98;1.10;;;9.80;99.90;;;;;;5131873;27;20187;-53
2022/09/27 06:43:13;;;;;;;2.92;1.38;;;9.80;99.90;;;;;;5131943;27;20255;-53
2022/09/27 06:45:39;;;;;;;1.30;1.10;;;9.80;99.90;;;;;;5132274;27;20179;-52
2022/09/27 06:48:06;;;;;;;2.92;1.13;;;9.80;99.90;;;;;;5130908;27;20532;-53
2022/09/27 06:50:37;;;;;;;1.75;0.88;;;9.80;99.90;;;;;;5131409;27;20179;-54
2022/09/27 06:53:05;;;;;;;6.32;1.33;;;9.80;99.90;;;;;;5131525;27;20164;-54
2022/09/27 06:55:31;;;;;;;1.13;0.93;;;9.90;99.90;;;;;;5130890;27;20682;-53
2022/09/27 07:00:45;;;;;;;2.35;0.88;;;9.80;99.90;;;;;;5132184;28;20214;-52
2022/09/27 07:03:12;;;;;;;2.10;0.77;;;9.80;99.90;;;;;;5132883;27;20198;-52
2022/09/27 07:05:38;;;;;;;1.95;0.75;;;9.80;99.90;;;;;;5133193;27;20166;-53
2022/09/27 07:08:04;;;;;;;1.10;0.90;;;9.80;99.90;;;;;;5132603;27;20168;-53
2022/09/27 07:10:33;;;;;;;1.67;0.82;;;9.90;99.90;;;;;;5132584;27;20168;-52
2022/09/27 07:13:04;;;;;;;2.70;1.63;;;9.90;99.90;;;;;;5132806;27;20209;-52
2022/09/27 07:15:31;;;;;;;2.22;0.90;;;9.90;99.90;;;;;;5132270;27;20321;-53
2022/09/27 07:17:58;;;;;;;2.00;0.80;;;9.90;99.90;;;;;;5132466;27;20168;-53
2022/09/27 07:20:28;;;;;;;1.48;0.63;;;9.90;99.90;;;;;;5132419;27;20174;-53
2022/09/27 07:22:54;;;;;;;1.40;0.95;;;9.80;99.90;;;;;;5132196;27;20156;-53
2022/09/27 07:25:19;;;;;;;2.50;0.85;;;9.80;99.90;;;;;;5132413;27;20187;-53
2022/09/27 07:27:45;;;;;;;2.22;1.10;;;9.90;99.90;;;;;;5132358;27;20164;-53
2022/09/27 07:30:12;;;;;;;2.08;0.80;;;9.90;99.90;;;;;;5132583;27;20164;-53
2022/09/27 07:32:37;;;;;;;0.63;0.63;;;9.80;99.90;;;;;;5132612;27;20164;-53
2022/09/27 07:35:05;;;;;;;1.80;0.88;;;9.90;99.90;;;;;;5132197;27;20202;-53
2022/09/27 07:37:36;;;;;;;2.42;1.25;;;9.90;99.90;;;;;;5132266;27;20172;-53
2022/09/27 07:40:06;;;;;;;1.67;1.40;;;9.90;99.90;;;;;;5132400;27;20617;-53
2022/09/27 07:42:32;;;;;;;2.58;1.00;;;10.00;99.90;;;;;;5132457;27;20554;-53
2022/09/27 07:44:57;;;;;;;1.80;0.80;;;10.00;99.90;;;;;;5132157;27;20616;-53
2022/09/27 07:47:24;;;;;;;0.88;0.82;;;10.10;99.90;;;;;;5132196;27;20196;-53
2022/09/27 07:49:51;;;;;;;1.10;1.00;;;10.20;99.90;;;;;;5132401;27;20217;-53
2022/09/27 07:52:20;;;;;;;1.15;0.95;;;10.20;99.90;;;;;;5131984;27;20216;-53
2022/09/27 07:54:46;;;;;;;2.85;0.80;;;10.30;99.90;;;;;;5131759;27;20268;-53
2022/09/27 07:57:13;;;;;;;1.10;0.93;;;10.40;99.90;;;;;;5132075;27;20216;-53
2022/09/27 07:59:39;;;;;;;3.00;0.90;;;10.50;99.90;;;;;;5131075;27;20633;-53
2022/09/27 08:02:05;;;;;;;0.50;0.50;;;10.50;99.90;;;;;;5132332;27;20168;-53
2022/09/27 08:04:31;;;;;;;0.98;0.70;;;10.60;99.90;;;;;;5132003;27;20168;-52
2022/09/27 08:06:57;;;;;;;1.42;0.75;;;10.70;99.90;;;;;;5132860;27;20172;-53
2022/09/27 08:09:25;;;;;;;0.88;0.88;;;10.80;99.90;;;;;;5135924;27;20221;-53
2022/09/27 08:11:50;;;;;;;1.13;0.52;;;10.90;99.90;;;;;;5135876;27;20164;-53
2022/09/27 08:14:17;;;;;;;0.98;0.82;;;11.00;99.90;;;;;;5135634;27;20164;-53
2022/09/27 08:16:43;;;;;;;1.58;0.80;;;11.10;99.90;;;;;;5135497;27;20218;-53
2022/09/27 08:19:09;;;;;;;3.15;1.00;;;11.10;99.90;;;;;;5135879;27;20259;-53
2022/09/27 08:21:35;;;;;;;1.08;0.75;;;11.20;99.90;;;;;;5135395;27;20176;-53
2022/09/27 08:24:02;;;;;;;0.88;0.63;;;11.20;99.90;;;;;;5135402;27;20201;-53
2022/09/27 08:26:27;;;;;;;0.60;0.60;;;11.30;99.90;;;;;;5135728;27;20178;-53
2022/09/27 08:28:53;;;;;;;0.85;0.85;;;11.20;99.90;;;;;;5133911;27;20160;-53
2022/09/27 08:31:19;;;;;;;1.02;0.57;;;11.20;99.90;;;;;;5135319;27;20641;-53
2022/09/27 08:33:50;;;;;;;1.83;0.75;;;11.50;99.90;;;;;;5135194;27;20172;-53
2022/09/27 08:36:16;;;;;;;1.00;0.88;;;11.60;99.90;;;;;;5135331;27;20242;-53
2022/09/27 08:38:42;;;;;;;1.63;0.63;;;11.60;99.90;;;;;;5135382;27;20164;-53
2022/09/27 08:41:23;;;;;;;2.92;0.98;;;11.80;99.90;;;;;;5134495;27;20179;-53
2022/09/27 08:44:07;;;;;;;0.95;0.95;;;12.00;99.90;;;;;;5135248;27;20210;-53
2022/09/27 08:46:40;;;;;;;1.98;0.90;;;11.90;99.90;;;;;;5134900;27;20168;-53
2022/09/27 08:49:48;;;;;;;1.10;1.00;;;11.70;99.90;;;;;;5134868;27;20709;-53
2022/09/27 08:52:40;;;;;;;2.65;1.40;;;11.80;99.90;;;;;;5134931;27;20633;-53
2022/09/27 08:55:21;;;;;;;2.78;1.15;;;11.90;99.90;;;;;;5114270;27;20368;-53
2022/09/27 08:57:52;;;;;;;1.00;0.90;;;11.80;99.90;;;;;;5135112;27;20195;-54
2022/09/27 09:00:18;;;;;;;1.80;1.23;;;11.70;99.90;;;;;;5134637;27;20188;-53
2022/09/27 09:02:43;;;;;;;1.92;1.17;;;11.70;99.90;;;;;;5134574;27;20192;-53
2022/09/27 09:05:15;;;;;;;2.40;1.30;;;11.80;99.90;;;;;;5134909;27;20201;-53
2022/09/27 09:07:55;;;;;;;1.33;1.23;;;11.90;99.90;;;;;;5134484;27;20525;-53
2022/09/27 09:13:53;;;;;;;2.53;1.23;;;11.80;99.90;;;;;;5134376;27;20659;-53
2022/09/27 09:16:43;;;;;;;1.10;0.90;;;11.90;99.90;;;;;;5134237;27;20610;-53
2022/09/27 09:19:20;;;;;;;1.33;1.23;;;11.90;99.90;;;;;;5134223;27;20167;-53
2022/09/27 09:22:27;;;;;;;1.17;1.08;;;12.00;99.90;;;;;;5134541;27;20263;-53
2022/09/27 09:24:58;;;;;;;1.13;0.98;;;12.00;99.90;;;;;;5134540;27;20186;-53
2022/09/27 09:27:42;;;;;;;2.22;1.40;;;11.90;99.90;;;;;;5134140;27;20161;-53
2022/09/27 09:30:24;;;;;;;1.48;1.10;;;11.90;99.90;;;;;;5134592;27;20228;-53
2022/09/27 09:33:21;;;;;;;3.03;1.02;;;11.90;99.90;;;;;;5134350;27;20174;-53
2022/09/27 09:36:06;;;;;;;3.13;1.38;;;11.90;99.90;;;;;;5133870;27;20198;-53
2022/09/27 09:38:47;;;;;;;1.42;1.23;;;11.90;99.90;;;;;;5132656;27;20172;-52
2022/09/27 09:41:23;;;;;;;2.25;1.20;;;12.00;99.90;;;;;;5133797;27;20578;-53
2022/09/27 09:44:17;;;;;;;1.70;1.40;;;11.90;99.90;;;;;;5133864;27;20182;-53
2022/09/27 09:46:47;;;;;;;1.92;1.02;;;12.00;99.90;;;;;;5133753;27;20247;-53
2022/09/27 09:49:28;;;;;;;2.25;1.73;;;12.10;99.90;;;;;;5133813;27;20211;-53
2022/09/27 09:52:00;;;;;;;1.77;1.38;;;12.10;99.90;;;;;;5133861;27;20164;-53
2022/09/27 09:54:32;;;;;;;2.28;1.42;;;12.40;99.90;;;;;;5133456;27;20212;-53
2022/09/27 09:57:10;;;;;;;2.70;1.30;;;12.40;99.90;;;;;;5133465;27;20660;-53
2022/09/27 09:59:44;;;;;;;2.53;1.77;;;12.50;99.90;;;;;;5133593;27;20693;-56
2022/09/27 10:02:20;;;;;;;1.92;1.40;;;12.60;99.90;;;;;;5133816;27;20163;-53
2022/09/27 10:04:45;;;;;;;1.92;1.25;;;12.70;99.90;;;;;;5133449;27;20155;-52
2022/09/27 10:07:11;;;;;;;3.33;1.50;;;12.60;99.90;;;;;;5133108;27;20164;-53
2022/09/27 10:09:38;;;;;;;2.65;1.23;;;12.50;99.90;;;;;;5133676;27;20670;-53
2022/09/27 10:12:03;;;;;;;3.70;1.75;;;12.70;99.90;;;;;;5133570;27;20262;-53
2022/09/27 10:14:31;;;;;;;3.28;1.45;;;12.50;99.90;;;;;;5132065;27;20259;-53
2022/09/27 10:17:02;;;;;;;3.17;1.55;;;12.50;99.90;;;;;;5133141;27;20294;-54
2022/09/27 10:19:30;;;;;;;3.13;1.63;;;12.40;99.90;;;;;;5131892;27;20610;-53
2022/09/27 10:22:09;;;;;;;2.72;1.67;;;12.30;99.90;;;;;;5133165;27;20194;-53
2022/09/27 10:24:55;;;;;;;3.30;1.88;;;12.20;99.90;;;;;;5133059;27;20596;-53
2022/09/27 10:27:22;;;;;;;2.45;1.73;;;12.00;99.90;;;;;;5133193;27;20191;-53
2022/09/27 10:29:58;;;;;;;2.15;1.85;;;11.90;99.90;;;;;;5132268;27;20184;-53
2022/09/27 10:32:30;;;;;;;3.72;1.92;;;11.90;99.90;;;;;;5132977;27;20169;-53
2022/09/27 10:35:16;;;;;;;5.90;1.88;;;11.80;99.90;;;;;;5133020;27;20255;-52
2022/09/27 10:37:42;;;;;;;2.47;1.92;;;11.70;99.90;;;;;;5132707;27;20178;-53
2022/09/27 10:40:29;;;;;;;3.92;2.28;;;11.60;99.90;;;;;;5133491;27;20213;-52
2022/09/27 10:42:55;;;;;;;4.18;2.30;;;11.50;99.90;;;;;;5132763;27;20643;-53
2022/09/27 10:45:30;;;;;;;3.65;2.42;;;11.50;99.90;;;;;;5132910;27;20188;-53
2022/09/27 10:47:58;;;;;;;4.40;3.22;;;11.30;99.90;;;;;;5132767;27;20254;-52
2022/09/27 10:50:30;;;;;;;3.17;2.55;;;11.30;99.90;;;;;;5132691;27;20164;-52
2022/09/27 10:53:11;;;;;;;5.28;2.50;;;11.30;99.90;;;;;;5131422;27;20246;-53
2022/09/27 10:55:38;;;;;;;2.55;2.35;;;11.30;99.90;;;;;;5132822;27;20735;-53
2022/09/27 10:58:05;;;;;;;3.80;2.60;;;11.30;99.90;;;;;;5131315;27;20221;-52
2022/09/27 11:00:36;;;;;;;4.60;2.88;;;11.60;99.90;;;;;;5132571;27;20242;-52
2022/09/27 11:03:12;;;;;;;3.55;2.67;;;11.60;99.90;;;;;;5132603;27;20685;-53
2022/09/27 11:05:38;;;;;;;3.00;2.70;;;11.80;99.90;;;;;;5132908;27;20582;-52
2022/09/27 11:08:22;;;;;;;3.10;2.80;;;11.90;99.90;;;;;;5132226;27;20629;-53
2022/09/27 11:11:06;;;;;;;4.45;2.20;;;12.00;99.90;;;;;;5132437;27;20175;-53
2022/09/27 11:13:34;;;;;;;3.35;2.13;;;12.10;99.90;;;;;;5132693;27;20220;-52
2022/09/27 11:16:37;;;;;;;3.90;2.20;;;12.00;99.90;;;;;;5132524;27;20199;-53
2022/09/27 11:19:25;;;;;;;4.63;2.45;;;12.20;99.90;;;;;;5132554;27;20159;-53
2022/09/27 11:22:14;;;;;;;2.88;2.20;;;12.30;99.90;;;;;;5132463;27;20172;-53
2022/09/27 11:24:52;;;;;;;3.28;2.20;;;12.10;99.90;;;;;;5132790;27;20273;-52
2022/09/27 11:28:00;;;;;;;4.65;2.40;;;12.10;99.90;;;;;;5132355;27;20156;-53
2022/09/27 11:30:44;;;;;;;3.75;2.45;;;12.20;99.90;;;;;;5125671;28;20184;-53
2022/09/27 11:33:13;;;;;;;3.13;2.13;;;12.20;99.90;;;;;;5132644;27;20259;-53
2022/09/27 11:35:51;;;;;;;3.83;2.55;;;12.10;99.90;;;;;;5132546;27;20200;-53
2022/09/27 11:38:19;;;;;;;2.63;2.05;;;12.10;99.90;;;;;;5132149;27;20577;-53
2022/09/27 11:41:01;;;;;;;2.92;2.13;;;12.00;99.90;;;;;;5133186;27;20175;-52
2022/09/27 11:43:39;;;;;;;5.50;2.50;;;12.00;99.90;;;;;;5136177;27;20156;-53
2022/09/27 11:46:07;;;;;;;4.43;2.30;;;11.90;99.90;;;;;;5136181;27;20213;-53
2022/09/27 11:49:08;;;;;;;3.40;2.30;;;12.10;99.90;;;;;;5136191;27;20206;-53
2022/09/27 11:52:12;;;;;;;4.70;2.33;;;12.30;99.90;;;;;;5136008;27;20160;-52
2022/09/27 11:55:05;;;;;;;4.25;2.20;;;12.50;99.90;;;;;;5136134;27;20229;-53
2022/09/27 11:57:42;;;;;;;2.15;1.95;;;12.90;99.90;;;;;;5135934;27;20172;-53
2022/09/27 12:00:17;;;;;;;6.68;2.80;;;13.10;99.90;;;;;;5136364;27;20156;-53
2022/09/27 12:03:12;;;;;;;3.92;1.98;;;13.40;99.90;;;;;;5135875;27;20191;-53
2022/09/27 12:05:49;;;;;;;3.17;1.90;;;13.50;99.90;;;;;;5126780;27;20649;-53
2022/09/27 12:08:33;;;;;;;2.97;1.90;;;13.40;99.90;;;;;;5135763;27;20164;-53
2022/09/27 12:11:21;;;;;;;2.08;1.52;;;13.10;99.90;;;;;;5135722;27;20277;-53
2022/09/27 12:13:51;;;;;;;2.47;1.65;;;12.80;99.90;;;;;;5135673;27;20163;-53
2022/09/27 12:16:19;;;;;;;2.95;1.48;;;12.70;99.90;;;;;;5135772;27;20295;-53
2022/09/27 12:18:47;;;;;;;1.75;1.50;;;12.70;99.90;;;;;;5135748;27;20168;-52
2022/09/27 12:21:13;;;;;;;2.22;1.30;;;12.80;99.90;;;;;;5135445;27;20196;-53
2022/09/27 12:23:46;;;;;;;2.15;1.10;;;12.80;99.90;;;;;;5135952;27;20167;-52
2022/09/27 12:26:21;;;;;;;1.33;1.10;;;12.70;99.90;;;;;;5135408;27;20192;-52
2022/09/27 12:28:59;;;;;;;1.00;0.90;;;12.60;99.90;;;;;;5134159;27;20178;-52
2022/09/27 12:31:41;;;;;;;0.85;0.85;;;12.20;99.90;;;;;;5135180;27;20176;-52
2022/09/27 12:34:22;;;;;;;0.85;0.52;;;11.90;99.90;;;;;;5135521;27;20160;-53
2022/09/27 12:37:17;;;;;;;1.35;0.52;;;11.90;99.90;;;;;;5135134;27;20206;-52
2022/09/27 12:40:11;;;;;;;1.10;0.70;;;11.80;99.90;;;;;;5132333;27;20203;-53
2022/09/27 12:42:42;;;;;;;1.15;0.70;;;11.90;99.90;;;;;;5135333;27;20192;-53
2022/09/27 12:45:15;;;;;;;1.25;0.60;;;11.90;99.90;;;;;;5135254;27;20632;-53
2022/09/27 12:47:55;;;;;;;1.90;1.13;;;12.00;99.90;;;;;;5134649;27;20172;-53
2022/09/27 12:50:36;;;;;;;1.23;0.80;;;12.00;99.90;;;;;;5133563;27;20163;-53
2022/09/27 12:53:12;;;;;;;2.40;1.10;;;11.90;99.90;;;;;;5134083;27;20245;-53
2022/09/27 12:55:44;;;;;;;1.45;1.00;;;12.10;99.90;;;;;;5135037;27;20268;-53
2022/09/27 12:58:27;;;;;;;1.83;1.20;;;12.10;99.90;;;;;;5135067;27;20264;-53
2022/09/27 13:01:18;;;;;;;2.05;1.08;;;12.20;99.90;;;;;;5134668;27;20197;-53
2022/09/27 13:04:03;;;;;;;1.65;1.48;;;12.20;99.90;;;;;;5134521;27;20183;-53
2022/09/27 13:06:47;;;;;;;1.85;0.80;;;12.30;99.90;;;;;;5134549;27;20159;-53
2022/09/27 13:09:39;;;;;;;2.03;0.70;;;12.30;99.90;;;;;;5134228;27;20224;-53
2022/09/27 13:12:15;;;;;;;1.08;0.60;;;12.30;99.90;;;;;;5134645;27;20247;-53
2022/09/27 13:14:43;;;;;;;0.38;0.38;;;12.20;99.90;;;;;;5132976;27;20520;-53
2022/09/27 13:17:47;;;;;;;0.50;0.50;;;12.20;99.90;;;;;;5134824;27;20568;-53
2022/09/27 13:20:34;;;;;;;0.55;0.55;;;12.30;99.90;;;;;;5133874;27;20255;-53
2022/09/27 13:23:22;;;;;;;1.10;1.00;;;12.20;99.90;;;;;;5133971;27;20179;-53
2022/09/27 13:25:54;;;;;;;0.43;0.43;;;12.10;99.90;;;;;;5133877;27;20171;-53
2022/09/27 13:28:26;;;;;;;0.35;0.30;;;12.20;99.90;;;;;;5134084;27;20172;-53